Time;durP1;ratioP1;P1;durP2;ratioP2;P2;SDS_P1;SDS_P2;PMS_P1;PMS_P2;Temp;Humidity;BMP_temperature;BMP_pressure;BME280_temperature;BME280_humidity;BME280_pressure;Samples;Min_cycle;Max_cycle;Signal;HPM_P1;HPM_P2
2023/03/19 00:00:10;0.00;0.00;0.62;0.00;0.00;0.62;3.77;2.80;;;25.10;24.30;;;;;;2268382;61;20789;-62
2023/03/19 00:02:55;0.00;0.00;0.62;0.00;0.00;0.62;3.10;2.27;;;25.10;24.30;;;;;;2267915;61;20402;-59
2023/03/19 00:05:40;0.00;0.00;0.62;0.00;0.00;0.62;3.73;2.80;;;25.10;24.30;;;;;;2267869;61;20509;-64
2023/03/19 00:08:26;0.00;0.00;0.62;0.00;0.00;0.62;2.60;2.23;;;25.10;24.30;;;;;;2268475;61;20363;-64
2023/03/19 00:11:12;0.00;0.00;0.62;0.00;0.00;0.62;5.17;3.37;;;25.10;24.40;;;;;;2267898;61;20402;-64
2023/03/19 00:13:57;0.00;0.00;0.62;0.00;0.00;0.62;2.90;2.50;;;25.10;24.40;;;;;;2267616;61;20395;-63
2023/03/19 00:16:42;0.00;0.00;0.62;0.00;0.00;0.62;2.83;2.47;;;25.10;24.40;;;;;;2268179;61;20367;-63
2023/03/19 00:19:27;0.00;0.00;0.62;0.00;0.00;0.62;2.47;2.10;;;25.10;24.30;;;;;;2267310;61;20390;-60
2023/03/19 00:22:12;0.00;0.00;0.62;0.00;0.00;0.62;3.20;2.90;;;25.10;24.30;;;;;;2268438;61;20443;-63
2023/03/19 00:24:58;0.00;0.00;0.62;0.00;0.00;0.62;3.13;2.40;;;25.10;24.30;;;;;;2267938;61;20530;-63
2023/03/19 00:27:43;0.00;0.00;0.62;0.00;0.00;0.62;3.73;2.60;;;25.10;24.40;;;;;;2267834;61;20359;-63
2023/03/19 00:30:28;0.00;0.00;0.62;0.00;0.00;0.62;2.67;2.13;;;25.10;24.40;;;;;;2268044;61;20409;-62
2023/03/19 00:33:13;0.00;0.00;0.62;0.00;0.00;0.62;3.07;2.37;;;25.10;24.40;;;;;;2267877;61;20930;-62
2023/03/19 00:35:58;0.00;0.00;0.62;0.00;0.00;0.62;2.53;2.23;;;25.10;24.40;;;;;;2267894;61;20425;-61
2023/03/19 00:38:44;0.00;0.00;0.62;0.00;0.00;0.62;2.87;2.13;;;25.10;24.40;;;;;;2268409;61;20355;-61
2023/03/19 00:41:31;0.00;0.00;0.62;0.00;0.00;0.62;2.87;2.43;;;25.10;24.40;;;;;;2268262;61;20363;-62
2023/03/19 00:44:17;0.00;0.00;0.62;0.00;0.00;0.62;2.40;2.00;;;25.10;24.40;;;;;;2267724;61;20397;-61
2023/03/19 00:47:02;0.00;0.00;0.62;0.00;0.00;0.62;4.00;2.47;;;25.10;24.40;;;;;;2269167;61;20383;-64
2023/03/19 00:49:47;0.00;0.00;0.62;0.00;0.00;0.62;2.67;1.93;;;25.10;24.40;;;;;;2268171;61;20359;-63
2023/03/19 00:52:32;0.00;0.00;0.62;0.00;0.00;0.62;2.43;2.00;;;25.10;24.40;;;;;;2269311;61;20793;-63
2023/03/19 00:55:17;0.00;0.00;0.62;0.00;0.00;0.62;2.30;1.80;;;25.10;24.40;;;;;;2268299;61;20436;-64
2023/03/19 00:58:05;0.00;0.00;0.62;0.00;0.00;0.62;2.27;1.77;;;25.10;24.40;;;;;;2268720;61;20902;-60
2023/03/19 01:00:52;0.00;0.00;0.62;0.00;0.00;0.62;2.30;1.93;;;25.10;24.40;;;;;;2268838;61;20489;-61
2023/03/19 01:03:37;0.00;0.00;0.62;0.00;0.00;0.62;2.67;2.03;;;25.10;24.50;;;;;;2268783;61;20374;-59
2023/03/19 01:06:23;0.00;0.00;0.62;0.00;0.00;0.62;3.00;2.30;;;25.10;24.50;;;;;;2268940;61;20832;-58
2023/03/19 01:09:08;0.00;0.00;0.62;0.00;0.00;0.62;2.40;1.93;;;25.20;24.50;;;;;;2269420;61;20358;-63
2023/03/19 01:11:53;0.00;0.00;0.62;0.00;0.00;0.62;2.30;1.90;;;25.20;24.50;;;;;;2267925;61;20359;-61
2023/03/19 01:14:40;0.00;0.00;0.62;0.00;0.00;0.62;3.50;1.80;;;25.20;24.50;;;;;;2268938;61;20406;-62
2023/03/19 01:17:27;0.00;0.00;0.62;0.00;0.00;0.62;3.03;1.73;;;25.20;24.50;;;;;;2268475;61;20374;-61
2023/03/19 01:20:13;0.00;0.00;0.62;0.00;0.00;0.62;2.33;1.70;;;25.20;24.50;;;;;;2267718;61;20391;-59
2023/03/19 01:22:57;0.00;0.00;0.62;0.00;0.00;0.62;2.93;2.10;;;25.20;24.50;;;;;;2268822;61;20884;-59
2023/03/19 01:25:42;0.00;0.00;0.62;0.00;0.00;0.62;2.23;1.50;;;25.20;24.50;;;;;;2268396;61;20386;-60
2023/03/19 01:28:26;0.00;0.00;0.62;0.00;0.00;0.62;2.70;1.93;;;25.20;24.50;;;;;;2268432;61;20907;-60
2023/03/19 01:31:12;0.00;0.00;0.62;0.00;0.00;0.62;2.30;1.50;;;25.20;24.50;;;;;;2268574;61;20390;-58
2023/03/19 01:34:23;0.00;0.00;0.62;0.00;0.00;0.62;2.30;1.40;;;25.20;24.50;;;;;;2267816;61;20985;-61
2023/03/19 01:37:12;0.00;0.00;0.62;0.00;0.00;0.62;4.50;2.30;;;25.20;24.60;;;;;;2268637;61;20433;-61
2023/03/19 01:39:58;0.00;0.00;0.62;0.00;0.00;0.62;2.33;1.70;;;25.20;24.50;;;;;;2267774;61;20391;-63
2023/03/19 01:42:54;0.00;0.00;0.62;0.00;0.00;0.62;2.10;1.53;;;25.20;25.30;;;;;;2268154;61;20358;-57
2023/03/19 01:46:12;0.00;0.00;0.62;0.00;0.00;0.62;2.33;1.77;;;25.20;24.60;;;;;;2269163;61;20448;-60
2023/03/19 01:49:02;0.00;0.00;0.62;0.00;0.00;0.62;3.30;1.47;;;25.20;24.60;;;;;;2268214;61;20362;-59
2023/03/19 01:51:47;0.00;0.00;0.62;0.00;0.00;0.62;2.50;1.67;;;25.20;24.60;;;;;;2268768;61;20487;-60
2023/03/19 01:54:58;0.00;0.00;0.62;0.00;0.00;0.62;2.87;1.70;;;25.20;24.50;;;;;;2268326;61;20391;-59
2023/03/19 01:58:03;0.00;0.00;0.62;0.00;0.00;0.62;1.80;1.20;;;25.20;24.50;;;;;;2269021;61;20391;-52
2023/03/19 02:01:14;0.00;0.00;0.62;0.00;0.00;0.62;2.07;1.40;;;25.20;24.50;;;;;;2268940;61;20354;-58
2023/03/19 02:04:05;0.00;0.00;0.62;0.00;0.00;0.62;2.13;1.47;;;25.20;24.50;;;;;;2268105;61;20387;-60
2023/03/19 02:06:55;0.00;0.00;0.62;0.00;0.00;0.62;1.80;1.37;;;25.20;24.50;;;;;;2268692;61;20405;-58
2023/03/19 02:09:40;0.00;0.00;0.62;0.00;0.00;0.62;2.63;1.83;;;25.30;24.50;;;;;;2268156;61;20370;-63
2023/03/19 02:12:25;0.00;0.00;0.62;0.00;0.00;0.62;1.97;1.37;;;25.20;24.50;;;;;;2265402;61;20387;-58
2023/03/19 02:15:11;0.00;0.00;0.62;0.00;0.00;0.62;2.07;1.30;;;25.30;24.50;;;;;;2268540;61;20398;-60
2023/03/19 02:17:57;0.00;0.00;0.62;0.00;0.00;0.62;1.73;1.20;;;25.20;24.50;;;;;;2267970;61;20387;-60
2023/03/19 02:20:51;0.00;0.00;0.62;0.00;0.00;0.62;1.80;1.40;;;25.30;24.50;;;;;;2268501;61;20351;-54
2023/03/19 02:23:45;0.00;0.00;0.62;0.00;0.00;0.62;1.70;1.23;;;25.20;24.50;;;;;;2268164;61;20387;-55
2023/03/19 02:26:35;0.00;0.00;0.62;0.00;0.00;0.62;1.50;1.20;;;25.30;24.50;;;;;;2268126;61;20375;-60
2023/03/19 02:29:21;0.00;0.00;0.62;0.00;0.00;0.62;2.00;1.40;;;25.30;24.50;;;;;;2268578;61;20360;-64
2023/03/19 02:32:06;0.00;0.00;0.62;0.00;0.00;0.62;1.60;1.20;;;25.30;24.50;;;;;;2268089;61;20359;-61
2023/03/19 02:34:53;0.00;0.00;0.62;0.00;0.00;0.62;1.80;1.47;;;25.30;24.50;;;;;;2268114;61;20518;-60
2023/03/19 02:37:37;0.00;0.00;0.62;0.00;0.00;0.62;1.93;1.47;;;25.30;24.50;;;;;;2268854;61;20836;-58
2023/03/19 02:40:28;0.00;0.00;0.62;0.00;0.00;0.62;1.70;1.20;;;25.30;24.50;;;;;;2267752;61;20433;-61
2023/03/19 02:43:15;0.00;0.00;0.62;0.00;0.00;0.62;1.87;1.10;;;25.30;24.50;;;;;;2269141;61;20355;-61
2023/03/19 02:46:00;0.00;0.00;0.62;0.00;0.00;0.62;1.97;1.13;;;25.30;24.50;;;;;;2268196;61;20383;-62
2023/03/19 02:48:45;0.00;0.00;0.62;0.00;0.00;0.62;1.90;1.30;;;25.30;24.50;;;;;;2267714;61;20766;-62
2023/03/19 02:51:30;0.00;0.00;0.62;0.00;0.00;0.62;1.77;1.30;;;25.30;24.50;;;;;;2268383;61;20577;-59
2023/03/19 02:54:15;0.00;0.00;0.62;0.00;0.00;0.62;1.97;1.43;;;25.30;24.50;;;;;;2268417;61;20493;-57
2023/03/19 02:56:59;0.00;0.00;0.62;0.00;0.00;0.62;2.40;1.67;;;25.30;24.50;;;;;;2268286;61;20483;-55
2023/03/19 02:59:46;0.00;0.00;0.62;0.00;0.00;0.62;2.13;1.77;;;25.30;24.50;;;;;;2268202;61;20402;-57
2023/03/19 03:02:31;0.00;0.00;0.62;0.00;0.00;0.62;3.00;1.70;;;25.30;24.50;;;;;;2267483;61;20421;-60
2023/03/19 03:05:16;0.00;0.00;0.62;0.00;0.00;0.62;3.53;1.70;;;25.30;24.50;;;;;;2268539;61;20433;-58
2023/03/19 03:08:03;0.00;0.00;0.62;0.00;0.00;0.62;2.70;1.93;;;25.30;24.50;;;;;;2268494;61;20363;-56
2023/03/19 03:10:47;0.00;0.00;0.62;0.00;0.00;0.62;2.00;1.50;;;25.30;24.40;;;;;;2267560;61;20430;-60
2023/03/19 03:13:33;0.00;0.00;0.62;0.00;0.00;0.62;1.80;1.50;;;25.30;24.40;;;;;;2268019;61;20394;-57
2023/03/19 03:16:21;0.00;0.00;0.62;0.00;0.00;0.62;2.20;1.90;;;25.20;24.40;;;;;;2268186;61;20379;-61
2023/03/19 03:19:06;0.00;0.00;0.62;0.00;0.00;0.62;2.30;1.73;;;25.20;24.40;;;;;;2267249;61;20371;-60
2023/03/19 03:21:51;0.00;0.00;0.62;0.00;0.00;0.62;2.10;1.57;;;25.20;24.40;;;;;;2268358;61;20356;-59
2023/03/19 03:24:38;0.00;0.00;0.62;0.00;0.00;0.62;3.70;1.60;;;25.20;24.40;;;;;;2267636;61;20606;-57
2023/03/19 03:27:22;0.00;0.00;0.62;0.00;0.00;0.62;3.40;1.97;;;25.20;24.40;;;;;;2268024;61;20401;-61
2023/03/19 03:30:09;0.00;0.00;0.62;0.00;0.00;0.62;2.90;1.50;;;25.20;24.40;;;;;;2268404;61;20405;-55
2023/03/19 03:32:55;0.00;0.00;0.62;0.00;0.00;0.62;2.40;2.00;;;25.20;24.40;;;;;;2268255;61;20387;-53
2023/03/19 03:35:40;0.00;0.00;0.62;0.00;0.00;0.62;3.00;2.23;;;25.20;24.40;;;;;;2268596;61;20399;-58
2023/03/19 03:38:25;0.00;0.00;0.62;0.00;0.00;0.62;2.33;1.60;;;25.20;24.50;;;;;;2268680;61;20397;-54
2023/03/19 03:41:11;0.00;0.00;0.62;0.00;0.00;0.62;2.53;1.90;;;25.20;24.50;;;;;;2268002;61;20438;-58
2023/03/19 03:43:56;0.00;0.00;0.62;0.00;0.00;0.62;2.93;1.93;;;25.10;24.40;;;;;;2268090;61;20359;-56
2023/03/19 03:46:42;0.00;0.00;0.62;0.00;0.00;0.62;2.30;1.70;;;25.10;24.40;;;;;;2267189;61;20784;-52
2023/03/19 03:49:28;0.00;0.00;0.62;0.00;0.00;0.62;2.30;2.00;;;25.10;24.40;;;;;;2268057;61;20768;-57
2023/03/19 03:52:14;0.00;0.00;0.62;0.00;0.00;0.62;2.13;1.87;;;25.10;24.40;;;;;;2268277;61;20849;-58
2023/03/19 03:54:59;0.00;0.00;0.62;0.00;0.00;0.62;2.67;2.23;;;25.10;24.40;;;;;;2267268;61;20490;-57
2023/03/19 03:57:44;0.00;0.00;0.62;0.00;0.00;0.62;3.00;1.93;;;25.10;24.40;;;;;;2268241;61;20363;-59
2023/03/19 04:00:28;0.00;0.00;0.62;0.00;0.00;0.62;2.50;2.00;;;25.10;24.50;;;;;;2267899;61;20417;-58
2023/03/19 04:03:13;0.00;0.00;0.62;0.00;0.00;0.62;2.10;1.90;;;25.10;24.50;;;;;;2267632;61;20410;-60
2023/03/19 04:06:00;0.00;0.00;0.62;0.00;0.00;0.62;2.20;1.97;;;25.00;24.40;;;;;;2268181;61;20382;-56
2023/03/19 04:08:45;0.00;0.00;0.62;0.00;0.00;0.62;2.70;1.90;;;25.00;24.40;;;;;;2267787;61;20852;-60
2023/03/19 04:11:30;0.00;0.00;0.62;0.00;0.00;0.62;2.60;1.93;;;25.00;24.50;;;;;;2268586;61;20462;-56
2023/03/19 04:14:15;0.00;0.00;0.62;0.00;0.00;0.62;2.27;2.03;;;25.00;24.40;;;;;;2268413;61;20431;-60
2023/03/19 04:17:00;0.00;0.00;0.62;0.00;0.00;0.62;2.10;1.83;;;25.00;24.50;;;;;;2267451;61;20849;-60
2023/03/19 04:19:44;0.00;0.00;0.62;0.00;0.00;0.62;2.53;2.07;;;25.00;24.40;;;;;;2265187;61;20941;-59
2023/03/19 04:22:32;0.00;0.00;0.62;0.00;0.00;0.62;2.80;2.27;;;25.00;24.50;;;;;;2267501;61;20440;-58
2023/03/19 04:25:17;0.00;0.00;0.62;0.00;0.00;0.62;2.40;2.10;;;24.90;24.40;;;;;;2267473;61;20839;-59
2023/03/19 04:28:03;0.00;0.00;0.62;0.00;0.00;0.62;3.10;2.10;;;24.90;24.40;;;;;;2268035;61;20363;-59
2023/03/19 04:30:48;0.00;0.00;0.62;0.00;0.00;0.62;2.03;1.80;;;24.90;24.40;;;;;;2267572;61;20366;-63
2023/03/19 04:33:34;0.00;0.00;0.62;0.00;0.00;0.62;2.30;1.90;;;24.90;24.40;;;;;;2267749;61;20386;-61
2023/03/19 04:36:19;0.00;0.00;0.62;0.00;0.00;0.62;3.70;2.03;;;24.90;24.40;;;;;;2267926;61;20382;-61
2023/03/19 04:39:06;0.00;0.00;0.62;0.00;0.00;0.62;2.50;1.80;;;24.90;24.40;;;;;;2266640;61;20358;-57
2023/03/19 04:41:51;0.00;0.00;0.62;0.00;0.00;0.62;2.10;1.53;;;24.80;24.40;;;;;;2268763;61;20395;-57
2023/03/19 04:44:46;0.00;0.00;0.62;0.00;0.00;0.62;2.70;2.03;;;24.80;24.40;;;;;;2267501;61;20371;-58
2023/03/19 04:47:31;0.00;0.00;0.62;0.00;0.00;0.62;2.30;2.10;;;24.80;24.40;;;;;;2267528;61;20887;-60
2023/03/19 04:50:18;0.00;0.00;0.62;0.00;0.00;0.62;3.30;2.10;;;24.80;24.40;;;;;;2267877;61;20816;-59
2023/03/19 04:53:04;0.00;0.00;0.62;0.00;0.00;0.62;2.30;1.80;;;24.70;24.40;;;;;;2267885;61;20379;-56
2023/03/19 04:55:50;0.00;0.00;0.62;0.00;0.00;0.62;2.33;1.70;;;24.70;24.40;;;;;;2268558;61;20402;-59
2023/03/19 04:58:37;0.00;0.00;0.62;0.00;0.00;0.62;2.80;1.70;;;24.70;24.40;;;;;;2268330;61;21280;-59
2023/03/19 05:01:22;0.00;0.00;0.62;0.00;0.00;0.62;2.43;2.23;;;24.70;24.40;;;;;;2267117;61;20417;-55
2023/03/19 05:04:20;0.00;0.00;0.62;0.00;0.00;0.62;2.80;1.70;;;24.70;24.40;;;;;;2267993;61;20343;-56
2023/03/19 05:07:06;0.00;0.00;0.62;0.00;0.00;0.62;2.97;2.10;;;24.70;24.50;;;;;;2267494;61;20417;-58
2023/03/19 05:09:53;0.00;0.00;0.62;0.00;0.00;0.62;2.37;1.80;;;24.60;24.40;;;;;;2267339;61;20371;-57
2023/03/19 05:12:40;0.00;0.00;0.62;0.00;0.00;0.62;2.40;1.87;;;24.60;24.40;;;;;;2267939;61;20359;-59
2023/03/19 05:15:26;0.00;0.00;0.62;0.00;0.00;0.62;2.43;1.90;;;24.60;24.50;;;;;;2264732;61;20390;-59
2023/03/19 05:18:21;0.00;0.00;0.62;0.00;0.00;0.62;3.00;1.70;;;24.60;24.50;;;;;;2267860;61;20359;-57
2023/03/19 05:21:09;0.00;0.00;0.62;0.00;0.00;0.62;2.60;2.20;;;24.60;24.50;;;;;;2267833;61;20453;-58
2023/03/19 05:23:56;0.00;0.00;0.62;0.00;0.00;0.62;2.97;2.30;;;24.60;24.50;;;;;;2267213;61;20895;-57
2023/03/19 05:26:41;0.00;0.00;0.62;0.00;0.00;0.62;2.03;1.57;;;24.60;24.50;;;;;;2267859;61;20437;-59
2023/03/19 05:29:36;0.00;0.00;0.62;0.00;0.00;0.62;2.40;1.67;;;24.50;24.50;;;;;;2267303;61;20355;-54
2023/03/19 05:32:33;0.00;0.00;0.62;0.00;0.00;0.62;2.13;1.93;;;24.50;24.50;;;;;;2267421;61;20386;-59
2023/03/19 05:35:21;0.00;0.00;0.62;0.00;0.00;0.62;2.40;2.00;;;24.50;24.50;;;;;;2268506;61;20867;-59
2023/03/19 05:38:07;0.00;0.00;0.62;0.00;0.00;0.62;1.80;1.60;;;24.50;24.40;;;;;;2267913;61;20363;-57
2023/03/19 05:40:52;0.00;0.00;0.62;0.00;0.00;0.62;3.57;2.37;;;24.50;24.50;;;;;;2268445;61;20394;-57
2023/03/19 05:43:42;0.00;0.00;0.62;0.00;0.00;0.62;4.20;2.17;;;24.40;24.40;;;;;;2268175;61;20772;-59
2023/03/19 05:46:40;0.00;0.00;0.62;0.00;0.00;0.62;1.97;1.57;;;24.40;24.40;;;;;;2267675;61;20892;-56
2023/03/19 05:49:26;0.00;0.00;0.62;0.00;0.00;0.62;2.43;2.23;;;24.40;24.50;;;;;;2268516;61;20407;-59
2023/03/19 05:52:11;0.00;0.00;0.62;0.00;0.00;0.62;2.93;2.40;;;24.40;24.50;;;;;;2268065;61;20405;-59
2023/03/19 05:54:56;0.00;0.00;0.62;0.00;0.00;0.62;4.10;2.10;;;24.40;24.50;;;;;;2268531;61;20379;-56
2023/03/19 05:58:03;0.00;0.00;0.62;0.00;0.00;0.62;2.27;1.67;;;24.40;24.60;;;;;;2269088;61;20364;-61
2023/03/19 06:00:48;0.00;0.00;0.62;0.00;0.00;0.62;2.27;1.97;;;24.40;24.60;;;;;;2267696;61;20359;-59
2023/03/19 06:03:34;0.00;0.00;0.62;0.00;0.00;0.62;2.77;2.03;;;24.40;24.60;;;;;;2268475;61;20409;-58
2023/03/19 06:06:24;0.00;0.00;0.62;0.00;0.00;0.62;3.30;1.93;;;24.40;24.60;;;;;;2268128;61;20387;-54
2023/03/19 06:09:10;0.00;0.00;0.62;0.00;0.00;0.62;2.37;1.97;;;24.30;24.50;;;;;;2267558;61;20383;-55
2023/03/19 06:12:00;0.00;0.00;0.62;0.00;0.00;0.62;2.50;2.20;;;24.30;24.50;;;;;;2268526;61;20351;-60
2023/03/19 06:15:05;0.00;0.00;0.62;0.00;0.00;0.62;3.03;2.40;;;24.30;24.60;;;;;;2267694;61;20424;-58
2023/03/19 06:18:10;0.00;0.00;0.62;0.00;0.00;0.62;2.20;2.00;;;24.30;24.60;;;;;;2269035;61;20493;-60
2023/03/19 06:20:57;0.00;0.00;0.62;0.00;0.00;0.62;3.07;2.17;;;24.30;24.60;;;;;;2267808;61;20899;-60
2023/03/19 06:23:41;0.00;0.00;0.62;0.00;0.00;0.62;2.80;2.43;;;24.30;24.60;;;;;;2268426;61;20371;-58
2023/03/19 06:29:12;0.00;0.00;0.62;0.00;0.00;0.62;2.90;2.23;;;24.20;24.50;;;;;;2269683;61;20872;-56
2023/03/19 06:31:58;0.00;0.00;0.62;0.00;0.00;0.62;2.93;2.40;;;24.20;24.50;;;;;;2265796;61;20355;-56
2023/03/19 06:34:57;0.00;0.00;0.62;0.00;0.00;0.62;2.70;2.23;;;24.20;24.50;;;;;;2264657;61;20415;-60
2023/03/19 06:37:43;0.00;0.00;0.62;0.00;0.00;0.62;2.40;2.10;;;24.10;24.50;;;;;;2266734;61;20788;-60
2023/03/19 06:40:28;0.00;0.00;0.62;0.00;0.00;0.62;2.43;2.07;;;24.20;24.60;;;;;;2264650;61;20408;-57
2023/03/19 06:43:13;0.00;0.00;0.62;0.00;0.00;0.62;2.97;2.33;;;24.10;24.60;;;;;;2264282;61;20863;-57
2023/03/19 06:45:57;0.00;0.00;0.62;0.00;0.00;0.62;2.90;2.57;;;24.10;24.60;;;;;;2264252;61;20383;-58
2023/03/19 06:48:42;0.00;0.00;0.62;0.00;0.00;0.62;3.20;2.33;;;24.10;24.60;;;;;;2264863;61;20392;-55
2023/03/19 06:51:26;0.00;0.00;0.62;0.00;0.00;0.62;2.83;2.10;;;24.10;24.70;;;;;;2264687;61;20391;-65
2023/03/19 06:54:12;0.00;0.00;0.62;0.00;0.00;0.62;2.77;2.17;;;24.10;24.80;;;;;;2264806;61;20380;-61
2023/03/19 06:56:57;0.00;0.00;0.62;0.00;0.00;0.62;2.37;1.80;;;24.10;24.80;;;;;;2264814;61;20418;-59
2023/03/19 06:59:42;0.00;0.00;0.62;0.00;0.00;0.62;2.40;2.20;;;24.10;24.80;;;;;;2263571;61;20367;-58
2023/03/19 07:02:27;0.00;0.00;0.62;0.00;0.00;0.62;4.13;2.20;;;24.10;24.80;;;;;;2264955;61;20966;-58
2023/03/19 07:05:11;0.00;0.00;0.62;0.00;0.00;0.62;2.60;2.00;;;24.10;24.80;;;;;;2264183;61;20846;-59
2023/03/19 07:07:56;0.00;0.00;0.62;0.00;0.00;0.62;2.43;1.90;;;24.10;24.80;;;;;;2264285;61;20360;-60
2023/03/19 07:10:42;0.00;0.00;0.62;0.00;0.00;0.62;2.40;1.80;;;24.10;24.90;;;;;;2264244;61;20902;-60
2023/03/19 07:13:27;0.00;0.00;0.62;0.00;0.00;0.62;2.70;2.00;;;24.10;24.90;;;;;;2264259;61;20384;-62
2023/03/19 07:16:11;0.00;0.00;0.62;0.00;0.00;0.62;3.03;2.73;;;24.10;24.90;;;;;;2264384;61;20375;-57
2023/03/19 07:18:56;0.00;0.00;0.62;0.00;0.00;0.62;2.40;1.73;;;24.10;24.90;;;;;;2264576;61;20438;-54
2023/03/19 07:21:40;0.00;0.00;0.62;0.00;0.00;0.62;4.13;2.67;;;24.10;25.40;;;;;;2263473;61;20406;-57
2023/03/19 07:24:25;0.00;0.00;0.62;0.00;0.00;0.62;3.60;2.90;;;24.00;24.80;;;;;;2264462;61;20568;-60
2023/03/19 07:27:11;0.00;0.00;0.62;0.00;0.00;0.62;3.93;3.23;;;24.00;24.80;;;;;;2264269;61;20371;-61
2023/03/19 07:29:56;0.00;0.00;0.62;0.00;0.00;0.62;4.10;2.77;;;24.00;24.90;;;;;;2263363;61;20409;-61
2023/03/19 07:32:41;0.00;0.00;0.62;0.00;0.00;0.62;6.27;2.80;;;23.90;24.90;;;;;;2264510;61;20360;-62
2023/03/19 07:35:26;0.00;0.00;0.62;0.00;0.00;0.62;5.67;3.07;;;23.80;25.00;;;;;;2264324;61;20913;-63
2023/03/19 07:38:11;0.00;0.00;0.62;0.00;0.00;0.62;4.70;3.47;;;23.70;25.20;;;;;;2261534;61;20404;-62
2023/03/19 07:40:56;0.00;0.00;0.62;0.00;0.00;0.62;5.67;4.30;;;23.70;25.30;;;;;;2258491;61;20897;-61
2023/03/19 07:43:42;0.00;0.00;0.62;0.00;0.00;0.62;4.30;3.03;;;23.60;25.40;;;;;;2259752;61;20868;-58
2023/03/19 07:46:27;0.00;0.00;0.62;0.00;0.00;0.62;5.33;3.50;;;23.50;25.40;;;;;;2260605;61;20420;-60
2023/03/19 07:49:12;0.00;0.00;0.62;0.00;0.00;0.62;5.60;3.30;;;23.40;25.50;;;;;;2259333;61;20411;-60
2023/03/19 07:51:56;0.00;0.00;0.62;0.00;0.00;0.62;5.37;3.47;;;23.30;25.60;;;;;;2260505;61;20365;-63
2023/03/19 07:54:41;0.00;0.00;0.62;0.00;0.00;0.62;5.40;3.07;;;23.30;25.70;;;;;;2260458;61;20637;-58
2023/03/19 07:57:25;0.00;0.00;0.62;0.00;0.00;0.62;4.23;3.20;;;23.10;25.70;;;;;;2260575;61;20796;-59
2023/03/19 08:00:14;0.00;0.00;0.62;0.00;0.00;0.62;3.73;3.07;;;23.00;25.80;;;;;;2259599;61;20407;-61
2023/03/19 08:03:01;0.00;0.00;0.62;0.00;0.00;0.62;5.10;2.73;;;23.00;25.90;;;;;;2260337;61;20365;-53
2023/03/19 08:05:48;0.00;0.00;0.62;0.00;0.00;0.62;3.20;2.90;;;22.90;26.00;;;;;;2275725;40;23096;-57
2023/03/19 08:08:33;0.00;0.00;0.62;0.00;0.00;0.62;4.57;2.50;;;22.80;26.10;;;;;;2264461;61;20938;-59
2023/03/19 08:11:18;0.00;0.00;0.62;0.00;0.00;0.62;3.90;2.37;;;22.80;26.20;;;;;;2264509;61;20407;-58
2023/03/19 08:14:03;0.00;0.00;0.62;0.00;0.00;0.62;2.33;1.73;;;22.80;26.40;;;;;;2264363;61;20800;-54
2023/03/19 08:16:49;0.00;0.00;0.62;0.00;0.00;0.62;2.73;1.87;;;22.80;26.40;;;;;;2259463;61;20457;-55
2023/03/19 08:19:35;0.00;0.00;0.62;0.00;0.00;0.62;2.50;2.07;;;22.80;26.40;;;;;;2260144;61;20381;-59
2023/03/19 08:22:19;0.00;0.00;0.62;0.00;0.00;0.62;2.30;2.00;;;22.80;26.40;;;;;;2260275;61;20392;-55
2023/03/19 08:25:06;0.00;0.00;0.62;0.00;0.00;0.62;6.33;2.27;;;22.80;26.40;;;;;;2262426;61;20383;-58
2023/03/19 08:27:50;0.00;0.00;0.62;0.00;0.00;0.62;4.70;2.80;;;22.80;26.50;;;;;;2491332;53;20369;-51
2023/03/19 08:30:38;0.00;0.00;0.62;0.00;0.00;0.62;3.13;2.50;;;22.80;26.50;;;;;;2256709;61;20353;-51
2023/03/19 08:33:24;0.00;0.00;0.62;0.00;0.00;0.62;3.00;2.27;;;22.80;26.50;;;;;;2259148;61;20378;-58
2023/03/19 08:36:12;0.00;0.00;0.62;0.00;0.00;0.62;2.60;2.30;;;22.80;26.50;;;;;;2257219;61;20389;-56
2023/03/19 08:38:57;0.00;0.00;0.62;0.00;0.00;0.62;3.67;2.30;;;22.80;26.50;;;;;;2259969;61;20366;-57
2023/03/19 08:41:42;0.00;0.00;0.62;0.00;0.00;0.62;2.97;2.40;;;22.80;26.50;;;;;;2259923;61;20460;-59
2023/03/19 08:44:27;0.00;0.00;0.62;0.00;0.00;0.62;4.40;2.27;;;22.80;26.50;;;;;;2258850;61;20941;-53
2023/03/19 08:47:12;0.00;0.00;0.62;0.00;0.00;0.62;5.30;2.30;;;22.90;26.70;;;;;;2258673;61;20365;-59
2023/03/19 08:49:58;0.00;0.00;0.62;0.00;0.00;0.62;3.90;2.53;;;22.90;26.70;;;;;;2256159;61;20358;-55
2023/03/19 08:52:43;0.00;0.00;0.62;0.00;0.00;0.62;2.83;2.10;;;22.80;26.70;;;;;;2256374;61;20409;-54
2023/03/19 08:55:27;0.00;0.00;0.62;0.00;0.00;0.62;4.00;2.33;;;22.90;26.80;;;;;;2256605;61;20481;-58
2023/03/19 08:58:12;0.00;0.00;0.62;0.00;0.00;0.62;3.40;2.80;;;22.80;26.80;;;;;;2256062;61;20505;-55
2023/03/19 09:01:02;0.00;0.00;0.62;0.00;0.00;0.62;3.80;2.30;;;22.80;26.80;;;;;;2256322;61;20416;-56
2023/03/19 09:03:46;0.00;0.00;0.62;0.00;0.00;0.62;3.40;2.33;;;22.80;26.80;;;;;;2257041;61;20357;-57
2023/03/19 09:06:32;0.00;0.00;0.62;0.00;0.00;0.62;5.10;2.43;;;22.90;26.90;;;;;;2256443;61;20455;-59
2023/03/19 09:09:17;0.00;0.00;0.62;0.00;0.00;0.62;5.30;2.90;;;22.90;26.90;;;;;;2257288;61;20365;-61
2023/03/19 09:12:03;0.00;0.00;0.62;0.00;0.00;0.62;3.40;2.03;;;22.90;26.90;;;;;;2256401;61;20421;-58
2023/03/19 09:14:47;0.00;0.00;0.62;0.00;0.00;0.62;4.33;2.23;;;22.90;26.90;;;;;;2257120;61;20531;-54
2023/03/19 09:17:32;0.00;0.00;0.62;0.00;0.00;0.62;2.53;1.97;;;22.80;26.80;;;;;;2257169;61;20449;-54
2023/03/19 09:20:17;0.00;0.00;0.62;0.00;0.00;0.62;2.63;1.97;;;22.90;26.80;;;;;;2255860;61;20357;-54
2023/03/19 09:23:03;0.00;0.00;0.62;0.00;0.00;0.62;2.63;1.83;;;22.90;26.70;;;;;;2257277;61;20362;-50
2023/03/19 09:25:49;0.00;0.00;0.62;0.00;0.00;0.62;3.20;1.80;;;23.00;26.80;;;;;;2256551;61;20401;-53
2023/03/19 09:28:34;0.00;0.00;0.62;0.00;0.00;0.62;2.63;1.93;;;23.00;26.70;;;;;;2256612;61;20400;-54
2023/03/19 09:31:19;0.00;0.00;0.62;0.00;0.00;0.62;3.13;2.40;;;23.10;26.60;;;;;;2259147;61;20374;-53
2023/03/19 09:34:06;0.00;0.00;0.62;0.00;0.00;0.62;3.80;3.00;;;23.10;26.60;;;;;;2256609;61;20377;-56
2023/03/19 09:36:50;0.00;0.00;0.62;0.00;0.00;0.62;5.37;3.07;;;23.20;26.60;;;;;;2256958;61;20831;-56
2023/03/19 09:39:37;0.00;0.00;0.62;0.00;0.00;0.62;2.97;2.20;;;23.20;26.70;;;;;;2256796;61;20398;-57
2023/03/19 09:42:48;0.00;0.00;0.62;0.00;0.00;0.62;2.57;2.20;;;23.30;26.70;;;;;;2255663;61;20401;-56
2023/03/19 09:45:33;0.00;0.00;0.62;0.00;0.00;0.62;3.00;2.30;;;23.30;26.70;;;;;;2257052;61;20465;-55
2023/03/19 09:48:30;0.00;0.00;0.62;0.00;0.00;0.62;3.40;2.73;;;23.40;26.70;;;;;;2256825;61;20388;-59
2023/03/19 09:51:20;0.00;0.00;0.62;0.00;0.00;0.62;4.10;2.70;;;23.50;26.70;;;;;;2256111;61;20386;-55
2023/03/19 09:54:20;0.00;0.00;0.62;0.00;0.00;0.62;3.80;2.67;;;23.50;26.70;;;;;;2259246;61;20520;-58
2023/03/19 09:57:08;0.00;0.00;0.62;0.00;0.00;0.62;4.73;3.20;;;23.60;26.70;;;;;;2256589;61;20940;-52
2023/03/19 09:59:53;0.00;0.00;0.62;0.00;0.00;0.62;3.77;2.73;;;23.60;26.60;;;;;;2257159;61;20776;-59
2023/03/19 10:02:41;0.00;0.00;0.62;0.00;0.00;0.62;3.30;2.57;;;23.60;26.60;;;;;;2256814;61;20390;-59
2023/03/19 10:05:44;0.00;0.00;0.62;0.00;0.00;0.62;4.60;3.20;;;23.70;26.60;;;;;;2255946;61;20578;-54
2023/03/19 10:08:44;0.00;0.00;0.62;0.00;0.00;0.62;3.40;2.73;;;23.70;26.60;;;;;;2256926;61;20799;-55
2023/03/19 10:11:42;0.00;0.00;0.62;0.00;0.00;0.62;4.50;2.90;;;23.80;26.60;;;;;;2258381;61;21153;-53
2023/03/19 10:15:13;0.00;0.00;0.62;0.00;0.00;0.62;6.50;2.90;;;23.90;26.60;;;;;;2256605;61;20386;-56
2023/03/19 10:18:03;0.00;0.00;0.62;0.00;0.00;0.62;4.60;2.87;;;23.90;26.50;;;;;;2256351;61;20421;-57
2023/03/19 10:20:54;0.00;0.00;0.62;0.00;0.00;0.62;3.93;2.70;;;24.00;26.50;;;;;;2255604;61;20362;-57
2023/03/19 10:23:44;0.00;0.00;0.62;0.00;0.00;0.62;4.60;3.37;;;24.00;26.50;;;;;;2256802;61;20354;-55
2023/03/19 10:29:25;0.00;0.00;0.62;0.00;0.00;0.62;4.60;3.20;;;24.10;26.50;;;;;;2270677;61;20953;-58
2023/03/19 10:32:18;0.00;0.00;0.62;0.00;0.00;0.62;4.10;2.90;;;24.10;26.50;;;;;;2270240;61;20960;-58
2023/03/19 10:35:15;0.00;0.00;0.62;0.00;0.00;0.62;3.80;3.20;;;24.10;26.50;;;;;;2267799;61;20391;-58
2023/03/19 10:38:18;0.00;0.00;0.62;0.00;0.00;0.62;4.60;3.50;;;24.20;26.50;;;;;;2269113;61;20382;-54
2023/03/19 10:41:25;0.00;0.00;0.62;0.00;0.00;0.62;5.27;4.00;;;24.20;26.50;;;;;;2268999;61;20347;-56
2023/03/19 10:44:23;0.00;0.00;0.62;0.00;0.00;0.62;4.87;3.77;;;24.30;26.60;;;;;;2268596;61;20354;-58
2023/03/19 10:47:15;0.00;0.00;0.62;0.00;0.00;0.62;4.80;4.17;;;24.30;26.50;;;;;;2268220;61;20688;-56
2023/03/19 10:50:02;0.00;0.00;0.62;0.00;0.00;0.62;5.60;4.37;;;24.30;26.50;;;;;;2267628;61;20398;-59
2023/03/19 10:52:50;0.00;0.00;0.62;0.00;0.00;0.62;6.20;5.10;;;24.40;26.60;;;;;;2269908;61;20413;-57
2023/03/19 10:55:35;0.00;0.00;0.62;0.00;0.00;0.62;5.20;4.63;;;24.40;26.50;;;;;;2269757;61;20456;-58
2023/03/19 10:58:26;0.00;0.00;0.62;0.00;0.00;0.62;5.63;4.67;;;24.50;26.60;;;;;;2271374;61;20845;-61
2023/03/19 11:01:12;0.00;0.00;0.62;0.00;0.00;0.62;5.30;4.20;;;24.50;26.60;;;;;;2269198;61;20409;-55
2023/03/19 11:04:00;0.00;0.00;0.62;0.00;0.00;0.62;6.00;4.47;;;24.60;26.60;;;;;;2268543;61;20447;-60
2023/03/19 11:06:49;0.00;0.00;0.62;0.00;0.00;0.62;5.70;4.57;;;24.60;26.60;;;;;;2270470;61;20379;-60